Time;durP1;ratioP1;P1;durP2;ratioP2;P2;SDS_P1;SDS_P2;PMS_P1;PMS_P2;Temp;Humidity;BMP_temperature;BMP_pressure;BME280_temperature;BME280_humidity;BME280_pressure;Samples;Min_cycle;Max_cycle;Signal;HPM_P1;HPM_P2
2022/08/26 00:00:53;;;;;;;;;;;;;;;19.69;88.13;100546.96;1692679;83;20269;-77
2022/08/26 00:03:20;;;;;;;;;;;;;;;19.67;88.16;100549.05;1693032;83;20292;-78
2022/08/26 00:05:46;;;;;;;;;;;;;;;19.63;88.22;100542.47;1692861;83;21117;-78
2022/08/26 00:08:12;;;;;;;;;;;;;;;19.63;88.27;100541.11;1693295;83;20174;-77
2022/08/26 00:10:39;;;;;;;;;;;;;;;19.63;88.35;100538.41;1692018;83;21620;-78
2022/08/26 00:13:05;;;;;;;;;;;;;;;19.62;88.36;100536.73;1692634;83;20203;-77
2022/08/26 00:15:33;;;;;;;;;;;;;;;19.58;88.40;100533.66;1693215;83;20123;-77
2022/08/26 00:17:59;;;;;;;;;;;;;;;19.56;88.47;100529.02;1692193;83;20237;-77
2022/08/26 00:20:27;;;;;;;;;;;;;;;19.56;88.53;100517.36;1692274;83;20197;-77
2022/08/26 00:22:53;;;;;;;;;;;;;;;19.51;88.54;100517.20;1693006;83;21578;-77
2022/08/26 00:25:19;;;;;;;;;;;;;;;19.53;88.62;100521.87;1692802;83;20182;-77
2022/08/26 00:27:45;;;;;;;;;;;;;;;19.50;88.65;100512.83;1709494;83;20175;-77
2022/08/26 00:30:13;;;;;;;;;;;;;;;19.49;88.71;100511.20;1692711;83;21060;-77
2022/08/26 00:32:39;;;;;;;;;;;;;;;19.46;88.76;100517.06;1693084;83;20195;-77
2022/08/26 00:35:05;;;;;;;;;;;;;;;19.42;88.79;100514.77;1693141;83;22187;-78
2022/08/26 00:37:31;;;;;;;;;;;;;;;19.43;88.84;100514.25;1693049;83;20152;-77
2022/08/26 00:39:57;;;;;;;;;;;;;;;19.42;88.88;100512.07;1692527;83;20194;-77
2022/08/26 00:42:23;;;;;;;;;;;;;;;19.41;88.92;100510.44;1693247;84;20163;-77
2022/08/26 00:44:49;;;;;;;;;;;;;;;19.40;88.95;100514.16;1693173;83;20186;-77
2022/08/26 00:47:33;;;;;;;;;;;;;;;19.37;88.98;100507.84;1693125;83;21518;-77
2022/08/26 00:49:59;;;;;;;;;;;;;;;19.37;89.01;100508.37;1692633;83;20163;-77
2022/08/26 00:52:25;;;;;;;;;;;;;;;19.33;89.05;100507.98;1691560;83;20639;-77
2022/08/26 00:55:10;;;;;;;;;;;;;;;19.30;89.08;100513.02;1690806;83;20302;-77
2022/08/26 00:57:35;;;;;;;;;;;;;;;19.23;89.12;100509.55;1691007;83;20099;-77
2022/08/26 01:00:05;;;;;;;;;;;;;;;19.22;89.21;100508.72;1690773;83;21519;-77
2022/08/26 01:02:31;;;;;;;;;;;;;;;19.21;89.21;100508.97;1689697;83;20153;-77
2022/08/26 01:04:59;;;;;;;;;;;;;;;19.20;89.28;100505.95;1691150;83;20210;-77
2022/08/26 01:07:26;;;;;;;;;;;;;;;19.19;89.33;100505.13;1690796;83;20168;-77
2022/08/26 01:09:51;;;;;;;;;;;;;;;19.18;89.37;100507.52;1690613;83;20191;-77
2022/08/26 01:12:18;;;;;;;;;;;;;;;19.16;89.42;100504.22;1690858;83;40460;-77
2022/08/26 01:14:46;;;;;;;;;;;;;;;19.12;89.42;100505.70;1690956;83;20230;-77
2022/08/26 01:17:11;;;;;;;;;;;;;;;19.06;89.46;100507.96;1669556;84;20184;-77
2022/08/26 01:19:41;;;;;;;;;;;;;;;19.00;89.47;100502.06;1690595;83;20749;-77
2022/08/26 01:22:18;;;;;;;;;;;;;;;18.98;89.52;100502.83;1689879;83;20163;-77
2022/08/26 01:24:45;;;;;;;;;;;;;;;18.95;89.56;100508.16;1689934;83;21408;-77
2022/08/26 01:27:12;;;;;;;;;;;;;;;18.91;89.61;100500.70;1691224;83;20160;-77
2022/08/26 01:29:40;;;;;;;;;;;;;;;18.87;89.68;100498.14;1668940;83;20152;-77
2022/08/26 01:32:06;;;;;;;;;;;;;;;18.88;89.74;100498.45;1691094;83;20167;-77
2022/08/26 01:34:34;;;;;;;;;;;;;;;18.86;89.74;100500.53;1691190;83;20175;-77
2022/08/26 01:37:12;;;;;;;;;;;;;;;18.87;89.78;100498.14;1691187;83;21506;-77
2022/08/26 01:39:38;;;;;;;;;;;;;;;18.84;89.84;100497.23;1690813;83;20160;-77
2022/08/26 01:42:06;;;;;;;;;;;;;;;18.83;89.89;100496.41;1690984;83;20218;-77
2022/08/26 01:44:35;;;;;;;;;;;;;;;18.78;89.90;100498.13;1691268;83;20415;-77
2022/08/26 01:47:01;;;;;;;;;;;;;;;18.75;89.94;100499.38;1690693;83;20099;-77
2022/08/26 01:49:26;;;;;;;;;;;;;;;18.75;89.98;100497.23;1667256;83;21529;-77
2022/08/26 01:51:53;;;;;;;;;;;;;;;18.73;90.00;100492.03;1690698;83;20261;-77
2022/08/26 01:54:19;;;;;;;;;;;;;;;18.71;90.06;100491.44;1690963;83;20174;-77
2022/08/26 01:56:46;;;;;;;;;;;;;;;18.70;90.11;100485.72;1690761;83;20221;-77
2022/08/26 01:59:13;;;;;;;;;;;;;;;18.71;90.12;100487.91;1691209;83;20478;-77
2022/08/26 02:01:39;;;;;;;;;;;;;;;18.70;90.19;100480.83;1691280;83;21446;-77
2022/08/26 02:04:35;;;;;;;;;;;;;;;18.65;90.21;100483.36;1690975;83;20214;-77
2022/08/26 02:07:03;;;;;;;;;;;;;;;18.60;90.21;100482.69;1689600;83;20152;-78
2022/08/26 02:09:29;;;;;;;;;;;;;;;18.57;90.28;100479.60;1691110;83;20163;-77
2022/08/26 02:11:55;;;;;;;;;;;;;;;18.53;90.32;100479.21;1691335;83;20226;-77
2022/08/26 02:14:23;;;;;;;;;;;;;;;18.51;90.40;100475.09;1691161;83;21344;-77
2022/08/26 02:16:50;;;;;;;;;;;;;;;18.48;90.42;100477.13;1690346;83;20182;-77
2022/08/26 02:19:20;;;;;;;;;;;;;;;18.49;90.46;100475.26;1691207;83;20523;-77
2022/08/26 02:21:46;;;;;;;;;;;;;;;18.52;90.51;100479.42;1690975;83;20144;-77
2022/08/26 02:24:15;;;;;;;;;;;;;;;18.53;90.56;100479.21;1690923;83;20170;-77
2022/08/26 02:26:41;;;;;;;;;;;;;;;18.51;90.56;100473.73;1689717;83;21453;-77
2022/08/26 02:29:25;;;;;;;;;;;;;;;18.47;90.60;100474.66;1690802;83;20167;-77
2022/08/26 02:31:51;;;;;;;;;;;;;;;18.41;90.65;100472.30;1684213;83;20480;-77
2022/08/26 02:34:22;;;;;;;;;;;;;;;18.39;90.68;100474.41;1691110;83;20180;-77
2022/08/26 02:36:48;;;;;;;;;;;;;;;18.37;90.74;100475.13;1685228;83;20516;-77
2022/08/26 02:39:15;;;;;;;;;;;;;;;18.35;90.78;100480.45;1690891;83;21209;-77
2022/08/26 02:41:42;;;;;;;;;;;;;;;18.32;90.81;100481.72;1691139;83;20176;-77
2022/08/26 02:44:08;;;;;;;;;;;;;;;18.31;90.87;100474.66;1691264;83;20195;-77
2022/08/26 02:46:34;;;;;;;;;;;;;;;18.27;90.88;100481.53;1691012;83;20182;-77
2022/08/26 02:49:00;;;;;;;;;;;;;;;18.27;90.93;100480.19;1690891;83;20818;-77
2022/08/26 02:51:26;;;;;;;;;;;;;;;18.26;90.94;100473.67;1682932;83;21040;-77
2022/08/26 02:53:52;;;;;;;;;;;;;;;18.24;90.96;100474.39;1675500;83;20224;-77
2022/08/26 02:56:18;;;;;;;;;;;;;;;18.22;91.00;100473.80;1691575;83;20175;-76
2022/08/26 02:58:44;;;;;;;;;;;;;;;18.22;91.06;100469.23;1717100;83;20195;-77
2022/08/26 03:01:24;;;;;;;;;;;;;;;18.18;91.06;100465.31;1718777;83;20164;-77
2022/08/26 03:03:50;;;;;;;;;;;;;;;18.15;91.10;100461.70;1716254;83;21227;-77
2022/08/26 03:06:16;;;;;;;;;;;;;;;18.15;91.16;100463.56;1713646;83;20259;-78
2022/08/26 03:08:42;;;;;;;;;;;;;;;18.16;91.21;100466.55;1718330;83;20165;-77
2022/08/26 03:11:09;;;;;;;;;;;;;;;18.12;91.24;100461.30;1715991;83;20144;-77
2022/08/26 03:13:35;;;;;;;;;;;;;;;18.07;91.26;100460.59;1718694;83;20197;-77
2022/08/26 03:16:01;;;;;;;;;;;;;;;18.06;91.31;100453.53;1686970;83;21797;-77
2022/08/26 03:18:27;;;;;;;;;;;;;;;18.03;91.32;100453.14;1716221;83;20141;-77
2022/08/26 03:20:53;;;;;;;;;;;;;;;18.03;91.40;100455.84;1717055;83;20176;-77
2022/08/26 03:23:19;;;;;;;;;;;;;;;18.03;91.43;100455.33;1718337;83;20148;-77
2022/08/26 03:25:50;;;;;;;;;;;;;;;18.06;91.46;100451.36;1709190;83;20229;-77
2022/08/26 03:28:16;;;;;;;;;;;;;;;18.05;91.46;100454.57;1698989;83;21272;-77
2022/08/26 03:30:43;;;;;;;;;;;;;;;18.01;91.49;100457.42;1718454;83;20835;-77
2022/08/26 03:33:10;;;;;;;;;;;;;;;18.01;91.54;100460.13;1714182;83;20168;-77
2022/08/26 03:35:36;;;;;;;;;;;;;;;18.03;91.57;100458.02;1705610;83;20565;-77
2022/08/26 03:38:03;;;;;;;;;;;;;;;18.04;91.60;100452.94;1690967;83;20463;-77
2022/08/26 03:40:32;;;;;;;;;;;;;;;18.01;91.61;100458.78;1691228;83;20702;-77
2022/08/26 03:42:57;;;;;;;;;;;;;;;17.96;91.65;100449.97;1690804;83;20155;-76
2022/08/26 03:45:23;;;;;;;;;;;;;;;17.97;91.68;100449.45;1690855;83;20143;-77
2022/08/26 03:47:49;;;;;;;;;;;;;;;17.98;91.70;100447.03;1691268;83;20185;-77
2022/08/26 03:50:16;;;;;;;;;;;;;;;17.97;91.73;100448.11;1691263;83;20177;-77
2022/08/26 03:52:42;;;;;;;;;;;;;;;17.96;91.76;100447.79;1691117;83;21134;-77
2022/08/26 03:55:08;;;;;;;;;;;;;;;17.93;91.77;100445.53;1690707;83;20194;-77
2022/08/26 03:57:34;;;;;;;;;;;;;;;17.92;91.79;100454.66;1669493;84;20186;-77
2022/08/26 04:00:00;;;;;;;;;;;;;;;17.94;91.85;100445.84;1691211;83;20174;-77
2022/08/26 04:02:26;;;;;;;;;;;;;;;17.97;91.88;100448.11;1690675;83;20866;-77
2022/08/26 04:04:52;;;;;;;;;;;;;;;18.02;91.92;100446.91;1691011;83;21242;-77
2022/08/26 04:07:18;;;;;;;;;;;;;;;18.03;91.95;100445.88;1691191;83;20186;-77
2022/08/26 04:09:43;;;;;;;;;;;;;;;18.08;91.96;100445.23;1691100;83;20269;-77
2022/08/26 04:12:09;;;;;;;;;;;;;;;18.12;92.00;100444.56;1691224;83;20730;-77
2022/08/26 04:14:36;;;;;;;;;;;;;;;18.17;92.02;100451.50;1690949;83;20214;-78
2022/08/26 04:17:03;;;;;;;;;;;;;;;18.17;92.00;100450.14;1691261;83;21225;-77
2022/08/26 04:19:30;;;;;;;;;;;;;;;18.18;92.04;100448.28;1691354;83;20449;-77
2022/08/26 04:21:56;;;;;;;;;;;;;;;18.20;92.08;100451.05;1690916;83;20184;-77
2022/08/26 04:24:22;;;;;;;;;;;;;;;18.27;92.09;100442.39;1690765;83;20785;-77
2022/08/26 04:26:49;;;;;;;;;;;;;;;18.36;92.15;100441.61;1693462;83;20198;-77
2022/08/26 04:29:17;;;;;;;;;;;;;;;18.42;92.18;100444.25;1663737;85;22169;-77
2022/08/26 04:31:42;;;;;;;;;;;;;;;18.46;92.22;100449.52;1658044;86;20174;-77
2022/08/26 04:34:09;;;;;;;;;;;;;;;18.52;92.27;100445.66;1636815;86;20580;-77
2022/08/26 04:36:34;;;;;;;;;;;;;;;18.58;92.31;100450.20;1634315;86;20637;-77
2022/08/26 04:39:01;;;;;;;;;;;;;;;18.62;92.36;100448.69;1643248;86;20684;-77
2022/08/26 04:41:28;;;;;;;;;;;;;;;18.70;92.38;100448.41;1643541;86;21529;-77
2022/08/26 04:43:55;;;;;;;;;;;;;;;18.79;92.44;100449.25;1643158;86;20171;-77
2022/08/26 04:46:22;;;;;;;;;;;;;;;18.88;92.45;100447.11;1642515;86;20182;-77
2022/08/26 04:48:51;;;;;;;;;;;;;;;18.94;92.52;100443.50;1643310;86;20223;-77
2022/08/26 04:51:26;;;;;;;;;;;;;;;19.01;92.56;100442.08;1643474;86;20455;-78
2022/08/26 04:53:47;;;;;;;;;;;;;;;19.06;92.62;100442.25;1643612;86;21771;-77
2022/08/26 04:56:13;;;;;;;;;;;;;;;19.11;92.64;100446.44;1644755;86;20226;-78
2022/08/26 04:58:40;;;;;;;;;;;;;;;19.19;92.67;100438.88;1645005;86;20218;-78
2022/08/26 05:01:07;;;;;;;;;;;;;;;19.26;92.72;100439.63;1644817;86;20155;-78
2022/08/26 05:03:32;;;;;;;;;;;;;;;19.32;92.76;100441.42;1644990;86;20146;-78
2022/08/26 05:05:58;;;;;;;;;;;;;;;19.36;92.80;100437.73;1618003;87;21741;-78
2022/08/26 05:08:24;;;;;;;;;;;;;;;19.42;92.85;100440.95;1622458;87;20189;-77
2022/08/26 05:10:54;;;;;;;;;;;;;;;19.47;92.88;100437.53;1645190;86;20280;-78
2022/08/26 05:13:20;;;;;;;;;;;;;;;19.51;92.89;100441.45;1630664;86;20869;-78
2022/08/26 05:15:46;;;;;;;;;;;;;;;19.56;92.95;100444.31;1645306;86;20290;-78
2022/08/26 05:18:12;;;;;;;;;;;;;;;19.60;92.98;100444.16;1645247;86;21647;-78
2022/08/26 05:20:46;;;;;;;;;;;;;;;19.63;93.00;100451.30;1622582;87;20165;-78
2022/08/26 05:23:12;;;;;;;;;;;;;;;19.69;93.05;100449.55;1644351;86;20171;-77
2022/08/26 05:25:40;;;;;;;;;;;;;;;19.74;93.08;100451.85;1644911;86;20277;-78
2022/08/26 05:28:10;;;;;;;;;;;;;;;19.77;93.13;100451.95;1644971;86;20458;-78
2022/08/26 05:30:36;;;;;;;;;;;;;;;19.79;93.18;100455.23;1644764;86;22339;-78
2022/08/26 05:33:02;;;;;;;;;;;;;;;19.86;93.26;100453.27;1645079;86;20202;-78
2022/08/26 05:35:30;;;;;;;;;;;;;;;19.89;93.26;100454.16;1644904;86;20178;-78
2022/08/26 05:37:57;;;;;;;;;;;;;;;19.91;93.33;100454.77;1644814;86;20479;-78
2022/08/26 05:40:24;;;;;;;;;;;;;;;19.96;93.34;100454.89;1645030;86;20487;-77
2022/08/26 05:42:51;;;;;;;;;;;;;;;20.00;93.38;100457.44;1644315;86;21802;-77
2022/08/26 05:45:18;;;;;;;;;;;;;;;20.03;93.41;100454.80;1644449;86;20222;-78
2022/08/26 05:47:44;;;;;;;;;;;;;;;20.07;93.47;100456.82;1644921;86;20167;-78
2022/08/26 05:50:10;;;;;;;;;;;;;;;20.11;93.51;100456.66;1645438;86;20402;-77
2022/08/26 05:52:36;;;;;;;;;;;;;;;20.16;93.57;100452.72;1641591;86;20192;-77
2022/08/26 05:55:03;;;;;;;;;;;;;;;20.20;93.56;100455.27;1618939;87;22420;-77
2022/08/26 05:57:29;;;;;;;;;;;;;;;20.24;93.58;100460.52;1618716;87;20114;-77
2022/08/26 05:59:55;;;;;;;;;;;;;;;20.25;93.57;100458.12;1618474;87;20175;-77
2022/08/26 06:02:22;;;;;;;;;;;;;;;20.28;93.60;100455.50;1617915;87;20460;-77
2022/08/26 06:04:47;;;;;;;;;;;;;;;20.29;93.63;100458.52;1631399;87;20120;-77
2022/08/26 06:07:15;;;;;;;;;;;;;;;20.31;93.60;100460.45;1618751;87;21842;-77
2022/08/26 06:09:41;;;;;;;;;;;;;;;20.37;93.66;100458.98;1618606;87;20167;-77
2022/08/26 06:12:07;;;;;;;;;;;;;;;20.39;93.63;100462.31;1617894;87;20196;-77
2022/08/26 06:14:34;;;;;;;;;;;;;;;20.45;93.64;100449.70;1623602;87;20405;-77
2022/08/26 06:17:00;;;;;;;;;;;;;;;20.58;93.68;100456.80;1643643;87;20443;-77
2022/08/26 06:19:26;;;;;;;;;;;;;;;20.66;93.64;100459.16;1624952;87;21813;-77
2022/08/26 06:21:53;;;;;;;;;;;;;;;20.85;93.68;100456.64;1637970;87;21721;-77
2022/08/26 06:27:04;;;;;;;;;;;;;;;21.16;93.64;100454.95;1641796;87;20363;-77
2022/08/26 06:29:32;;;;;;;;;;;;;;;21.47;93.69;100452.88;1641651;87;20471;-77
2022/08/26 06:31:58;;;;;;;;;;;;;;;21.49;93.49;100450.77;1637837;87;22596;-78
2022/08/26 06:34:24;;;;;;;;;;;;;;;21.47;93.41;100455.59;1636652;87;20278;-78
2022/08/26 06:36:50;;;;;;;;;;;;;;;21.52;93.40;100460.61;1620053;87;20191;-77
2022/08/26 06:39:16;;;;;;;;;;;;;;;21.76;93.36;100462.72;1619192;87;20313;-78
2022/08/26 06:41:43;;;;;;;;;;;;;;;21.85;93.19;100458.53;1619096;87;20246;-77
2022/08/26 06:44:09;;;;;;;;;;;;;;;22.06;93.11;100459.25;1619104;87;22665;-78
2022/08/26 06:46:35;;;;;;;;;;;;;;;22.36;92.94;100456.27;1618172;87;20761;-78
2022/08/26 06:49:01;;;;;;;;;;;;;;;22.54;92.80;100453.31;1633655;87;20229;-78
2022/08/26 06:51:32;;;;;;;;;;;;;;;22.73;92.64;100447.13;1639091;87;20423;-78
2022/08/26 06:54:02;;;;;;;;;;;;;;;22.90;92.39;100447.94;1666328;84;20167;-78
2022/08/26 06:56:28;;;;;;;;;;;;;;;23.09;92.17;100445.20;1719467;83;21846;-77
2022/08/26 06:58:54;;;;;;;;;;;;;;;23.19;91.75;100446.70;1713164;83;20174;-78
2022/08/26 07:01:21;;;;;;;;;;;;;;;23.35;91.56;100443.13;1720577;83;20776;-78
2022/08/26 07:03:49;;;;;;;;;;;;;;;23.49;91.21;100448.22;1703980;83;20618;-78
2022/08/26 07:06:17;;;;;;;;;;;;;;;23.60;90.95;100450.00;1715990;83;20196;-78
2022/08/26 07:08:43;;;;;;;;;;;;;;;23.82;90.76;100448.05;1699386;83;22634;-78
2022/08/26 07:11:11;;;;;;;;;;;;;;;24.00;90.45;100450.44;1702594;83;20366;-78
2022/08/26 07:13:37;;;;;;;;;;;;;;;24.20;90.08;100460.23;1697538;83;20320;-78
2022/08/26 07:16:04;;;;;;;;;;;;;;;24.27;89.82;100453.20;1706181;83;20521;-78
2022/08/26 07:18:33;;;;;;;;;;;;;;;24.31;89.48;100456.50;1703890;83;20226;-78
2022/08/26 07:21:00;;;;;;;;;;;;;;;24.28;89.16;100450.20;1700464;83;21878;-78
2022/08/26 07:23:26;;;;;;;;;;;;;;;24.32;88.86;100455.42;1720135;83;20173;-78
2022/08/26 07:25:52;;;;;;;;;;;;;;;24.31;88.50;100448.89;1720225;83;20765;-78
2022/08/26 07:28:18;;;;;;;;;;;;;;;24.33;88.04;100450.27;1708129;83;20999;-78
2022/08/26 07:30:44;;;;;;;;;;;;;;;24.33;87.83;100447.53;1703229;83;20128;-78
2022/08/26 07:33:10;;;;;;;;;;;;;;;24.48;87.67;100450.12;1670125;85;21831;-78
2022/08/26 07:35:36;;;;;;;;;;;;;;;24.62;87.46;100444.50;1635131;86;20686;-78
2022/08/26 07:38:02;;;;;;;;;;;;;;;24.83;87.10;100449.06;1698464;83;20171;-78
2022/08/26 07:40:28;;;;;;;;;;;;;;;24.93;86.77;100443.67;1693884;83;20448;-78
2022/08/26 07:42:54;;;;;;;;;;;;;;;25.05;86.55;100443.48;1697931;83;20267;-78
2022/08/26 07:45:20;;;;;;;;;;;;;;;25.02;86.11;100440.71;1699193;83;21870;-78
2022/08/26 07:47:46;;;;;;;;;;;;;;;25.02;85.81;100437.98;1695933;83;20250;-78
2022/08/26 07:50:12;;;;;;;;;;;;;;;25.09;85.54;100445.39;1696445;83;20256;-78
2022/08/26 07:52:38;;;;;;;;;;;;;;;25.20;85.35;100438.91;1698063;83;20438;-78
2022/08/26 07:55:04;;;;;;;;;;;;;;;25.31;85.03;100437.88;1704466;83;20854;-78
2022/08/26 07:57:30;;;;;;;;;;;;;;;25.43;84.66;100434.11;1709036;83;21817;-78
2022/08/26 08:00:00;;;;;;;;;;;;;;;25.51;84.44;100444.56;1713161;83;20207;-78
2022/08/26 08:02:27;;;;;;;;;;;;;;;25.68;84.40;100439.70;1712698;83;20198;-78
2022/08/26 08:04:53;;;;;;;;;;;;;;;25.74;83.94;100440.82;1708750;83;20398;-79
2022/08/26 08:07:19;;;;;;;;;;;;;;;25.64;83.48;100441.33;1701282;83;20519;-79
2022/08/26 08:09:48;;;;;;;;;;;;;;;25.67;83.24;100443.52;1679173;83;21778;-78
2022/08/26 08:12:13;;;;;;;;;;;;;;;25.85;83.09;100441.67;1702375;83;20212;-77
2022/08/26 08:14:39;;;;;;;;;;;;;;;25.99;82.76;100448.27;1689935;83;20456;-78
2022/08/26 08:17:05;;;;;;;;;;;;;;;26.04;82.30;100448.80;1708083;83;20439;-78
2022/08/26 08:19:31;;;;;;;;;;;;;;;26.20;82.18;100445.88;1702788;83;20311;-78
2022/08/26 08:21:57;;;;;;;;;;;;;;;26.30;81.83;100441.78;1702709;83;22831;-78
2022/08/26 08:24:23;;;;;;;;;;;;;;;26.52;81.58;100447.53;1724018;83;20191;-78
2022/08/26 08:26:50;;;;;;;;;;;;;;;26.71;81.28;100443.95;1703730;83;20191;-78
2022/08/26 08:29:16;;;;;;;;;;;;;;;26.74;80.84;100438.50;1698859;83;20353;-78
2022/08/26 08:31:41;;;;;;;;;;;;;;;26.86;80.63;100438.22;1694869;83;20760;-78
2022/08/26 08:34:07;;;;;;;;;;;;;;;27.07;80.40;100439.28;1703686;83;21964;-78
2022/08/26 08:36:33;;;;;;;;;;;;;;;27.22;80.20;100431.03;1697390;83;20194;-79
2022/08/26 08:38:59;;;;;;;;;;;;;;;27.17;79.79;100436.51;1697519;83;20262;-78
2022/08/26 08:41:40;;;;;;;;;;;;;;;27.21;79.52;100434.86;1694870;83;21081;-78
2022/08/26 08:44:12;;;;;;;;;;;;;;;27.13;79.26;100429.94;1694294;83;20138;-78
2022/08/26 08:46:39;;;;;;;;;;;;;;;27.33;78.97;100420.03;1676269;83;23083;-77
2022/08/26 08:49:06;;;;;;;;;;;;;;;27.41;78.70;100418.09;1704223;83;20799;-77
2022/08/26 08:51:37;;;;;;;;;;;;;;;27.54;78.42;100424.36;1688603;83;20118;-78
2022/08/26 08:54:03;;;;;;;;;;;;;;;27.54;78.17;100424.36;1702062;83;20534;-79
2022/08/26 08:56:31;;;;;;;;;;;;;;;27.57;77.80;100416.40;1660348;86;20809;-77
2022/08/26 08:59:19;;;;;;;;;;;;;;;27.53;77.37;100423.53;1600676;87;22499;-77
2022/08/26 09:01:55;;;;;;;;;;;;;;;27.59;77.13;100414.73;1573981;89;20151;-78
2022/08/26 09:04:57;;;;;;;;;;;;;;;27.82;76.73;100414.07;1589774;87;20160;-78
2022/08/26 09:07:28;;;;;;;;;;;;;;;27.79;76.16;100410.53;1603754;87;20494;-77
2022/08/26 09:10:00;;;;;;;;;;;;;;;27.74;75.58;100405.89;1623430;87;20139;-78
2022/08/26 09:12:29;;;;;;;;;;;;;;;27.76;75.06;100415.21;1617801;87;21896;-75
2022/08/26 09:15:01;;;;;;;;;;;;;;;27.91;74.72;100404.67;1613240;87;20166;-75
2022/08/26 09:17:34;;;;;;;;;;;;;;;28.09;74.34;100404.86;1621670;87;20127;-75
2022/08/26 09:20:19;;;;;;;;;;;;;;;28.23;73.95;100403.11;1617826;87;20354;-75
2022/08/26 09:22:45;;;;;;;;;;;;;;;28.36;73.55;100406.32;1611484;87;20446;-74
2022/08/26 09:25:11;;;;;;;;;;;;;;;28.36;73.12;100409.06;1624418;87;22068;-74
2022/08/26 09:27:44;;;;;;;;;;;;;;;28.35;72.75;100400.56;1621112;87;20459;-74
2022/08/26 09:30:13;;;;;;;;;;;;;;;28.26;72.25;100399.80;1600939;87;20168;-74
2022/08/26 09:32:41;;;;;;;;;;;;;;;28.28;71.98;100392.11;1607846;87;20589;-74
2022/08/26 09:35:25;;;;;;;;;;;;;;;28.40;71.71;100393.64;1621768;87;20178;-75
2022/08/26 09:37:51;;;;;;;;;;;;;;;28.46;71.51;100392.52;1599045;87;21866;-74
2022/08/26 09:40:30;;;;;;;;;;;;;;;28.50;71.38;100390.83;1612616;87;20176;-74
2022/08/26 09:43:18;;;;;;;;;;;;;;;28.49;70.83;100396.05;1612413;87;20124;-75
2022/08/26 09:45:46;;;;;;;;;;;;;;;28.47;70.58;100390.01;1611412;87;20411;-75
2022/08/26 09:48:15;;;;;;;;;;;;;;;28.66;70.31;100384.08;1613231;87;20194;-75
2022/08/26 09:50:53;;;;;;;;;;;;;;;28.76;70.01;100384.00;1599273;87;22892;-75
2022/08/26 09:53:35;;;;;;;;;;;;;;;28.68;69.53;100382.70;1593713;87;20414;-74
2022/08/26 09:56:19;;;;;;;;;;;;;;;28.71;69.13;100384.07;1610505;87;20192;-74
2022/08/26 09:58:46;;;;;;;;;;;;;;;28.77;68.67;100377.41;1624998;87;20718;-75
2022/08/26 10:01:25;;;;;;;;;;;;;;;28.87;68.34;100375.92;1632834;86;20115;-75
2022/08/26 10:03:51;;;;;;;;;;;;;;;29.03;68.11;100376.00;1629815;87;21282;-75
2022/08/26 10:06:20;;;;;;;;;;;;;;;29.07;67.63;100379.81;1628647;87;20206;-75
2022/08/26 10:08:48;;;;;;;;;;;;;;;29.01;67.27;100370.00;1637382;87;20136;-75
2022/08/26 10:11:19;;;;;;;;;;;;;;;29.01;66.78;100370.00;1635763;87;20470;-75
2022/08/26 10:13:47;;;;;;;;;;;;;;;29.00;66.07;100368.91;1632788;87;20386;-76
2022/08/26 10:16:17;;;;;;;;;;;;;;;28.93;65.35;100356.08;1624804;87;21858;-76
2022/08/26 10:18:49;;;;;;;;;;;;;;;29.00;64.85;100360.11;1630352;87;20288;-76
2022/08/26 10:21:21;;;;;;;;;;;;;;;29.07;64.20;100355.64;1631330;87;20119;-80
2022/08/26 10:23:49;;;;;;;;;;;;;;;29.01;63.32;100359.02;1624385;87;20398;-80
2022/08/26 10:26:19;;;;;;;;;;;;;;;29.07;63.00;100350.97;1627966;87;20219;-79
2022/08/26 10:29:00;;;;;;;;;;;;;;;29.20;62.67;100354.36;1604017;87;21346;-78
2022/08/26 10:31:50;;;;;;;;;;;;;;;29.23;62.26;100352.43;1600418;87;20915;-78
2022/08/26 10:34:16;;;;;;;;;;;;;;;29.21;61.87;100351.89;1612552;87;20434;-78
2022/08/26 10:36:48;;;;;;;;;;;;;;;29.15;61.37;100343.45;1605899;87;20346;-79
2022/08/26 10:39:21;;;;;;;;;;;;;;;29.12;60.84;100342.67;1621253;87;20430;-78
2022/08/26 10:41:48;;;;;;;;;;;;;;;29.09;60.49;100344.64;1609401;87;21862;-79
2022/08/26 10:44:14;;;;;;;;;;;;;;;29.09;60.07;100341.89;1616375;88;20115;-76
2022/08/26 10:46:46;;;;;;;;;;;;;;;29.13;59.84;100345.66;1620589;87;20170;-76
2022/08/26 10:49:14;;;;;;;;;;;;;;;29.18;59.71;100340.12;1617932;87;20502;-75
2022/08/26 10:51:49;;;;;;;;;;;;;;;29.22;59.23;100339.80;1604928;87;20441;-76
2022/08/26 10:54:22;;;;;;;;;;;;;;;29.20;59.04;100336.51;1607069;86;22426;-76
2022/08/26 10:57:13;;;;;;;;;;;;;;;29.35;58.89;100334.15;1620595;87;20103;-76
2022/08/26 11:01:40;;;;;;;;;;;;;;;29.47;58.67;100332.34;1641456;85;20183;-75
2022/08/26 11:02:37;;;;;;;;;;;;;;;29.52;58.22;100335.04;1659181;85;20374;-76
2022/08/26 11:05:14;;;;;;;;;;;;;;;29.52;57.45;100333.08;1657701;85;20173;-76
2022/08/26 11:07:47;;;;;;;;;;;;;;;29.60;57.18;100331.60;1660150;85;22680;-76
2022/08/26 11:10:19;;;;;;;;;;;;;;;29.48;56.38;100327.12;1678229;84;20137;-75
2022/08/26 11:12:52;;;;;;;;;;;;;;;29.40;55.94;100328.59;1668342;85;20348;-75
2022/08/26 11:15:28;;;;;;;;;;;;;;;29.37;55.53;100322.88;1658777;85;20493;-75
2022/08/26 11:18:03;;;;;;;;;;;;;;;29.42;55.22;100329.66;1657137;85;20185;-76
2022/08/26 11:20:33;;;;;;;;;;;;;;;29.44;54.99;100315.08;1644126;85;21779;-76
2022/08/26 11:23:14;;;;;;;;;;;;;;;29.46;54.57;100313.66;1619502;87;20203;-76
2022/08/26 11:25:59;;;;;;;;;;;;;;;29.56;54.68;100311.31;1665088;85;20193;-76
2022/08/26 11:28:38;;;;;;;;;;;;;;;29.59;54.50;100303.88;1657066;86;20347;-76
2022/08/26 11:31:07;;;;;;;;;;;;;;;29.56;54.00;100309.94;1675256;85;20151;-76
2022/08/26 11:33:50;;;;;;;;;;;;;;;29.53;53.70;100306.42;1661728;85;22509;-76
2022/08/26 11:36:40;;;;;;;;;;;;;;;29.65;53.93;100304.05;1604610;87;20148;-76
2022/08/26 11:39:30;;;;;;;;;;;;;;;29.73;53.73;100302.01;1645602;85;20195;-76
2022/08/26 11:42:00;;;;;;;;;;;;;;;29.68;53.56;100293.83;1657798;85;20456;-75
2022/08/26 11:44:28;;;;;;;;;;;;;;;29.66;53.46;100290.57;1667625;85;20240;-76
2022/08/26 11:46:56;;;;;;;;;;;;;;;29.66;53.15;100294.69;1645906;85;21777;-76
2022/08/26 11:49:23;;;;;;;;;;;;;;;29.75;53.26;100292.34;1638560;85;20133;-76
2022/08/26 11:51:49;;;;;;;;;;;;;;;29.89;53.24;100289.66;1614095;88;20202;-76
2022/08/26 11:54:17;;;;;;;;;;;;;;;29.91;52.73;100288.00;1662010;85;20446;-76
2022/08/26 11:56:44;;;;;;;;;;;;;;;29.90;52.30;100284.98;1664746;85;20197;-76
2022/08/26 11:59:14;;;;;;;;;;;;;;;29.87;51.59;100283.66;1668519;85;21885;-76
2022/08/26 12:01:42;;;;;;;;;;;;;;;29.83;51.06;100281.22;1682684;84;21710;-76
2022/08/26 12:04:10;;;;;;;;;;;;;;;29.90;51.13;100272.61;1705439;83;20108;-76
2022/08/26 12:06:47;;;;;;;;;;;;;;;29.93;51.03;100268.70;1691734;83;21037;-76
2022/08/26 12:09:22;;;;;;;;;;;;;;;29.94;50.42;100267.59;1636046;86;20158;-76
2022/08/26 12:11:48;;;;;;;;;;;;;;;29.95;49.81;100262.33;1655440;85;21799;-76
2022/08/26 12:14:20;;;;;;;;;;;;;;;29.98;49.42;100254.84;1665944;85;20211;-76
2022/08/26 12:16:46;;;;;;;;;;;;;;;30.06;49.35;100252.78;1642224;85;20167;-76
2022/08/26 12:19:32;;;;;;;;;;;;;;;30.15;49.34;100248.20;1658751;85;21283;-76
2022/08/26 12:22:01;;;;;;;;;;;;;;;30.21;49.10;100246.19;1703028;83;20158;-76
2022/08/26 12:24:27;;;;;;;;;;;;;;;30.21;48.88;100247.01;1712343;83;22732;-76
2022/08/26 12:27:17;;;;;;;;;;;;;;;30.19;48.67;100242.91;1710185;83;20197;-76
2022/08/26 12:29:43;;;;;;;;;;;;;;;30.14;48.62;100238.89;1715155;83;20164;-76
2022/08/26 12:32:16;;;;;;;;;;;;;;;30.14;48.49;100244.39;1721833;83;20456;-76
2022/08/26 12:34:43;;;;;;;;;;;;;;;30.09;48.39;100238.97;1719273;83;20190;-76
2022/08/26 12:37:10;;;;;;;;;;;;;;;30.12;48.48;100239.18;1698484;83;21856;-77
2022/08/26 12:39:38;;;;;;;;;;;;;;;30.21;48.29;100236.56;1711272;83;20194;-77
2022/08/26 12:42:15;;;;;;;;;;;;;;;30.22;47.95;100233.48;1717841;83;20161;-77
2022/08/26 12:44:49;;;;;;;;;;;;;;;30.29;47.78;100238.61;1711311;83;20430;-77
2022/08/26 12:47:18;;;;;;;;;;;;;;;30.29;47.04;100230.91;1718671;83;20156;-77